Terminal Aerodrome Forecast
Issued by NWS Detroit/Pontiac, MI

Home | Current Version | Previous Version | Text Only | Print | Product List | Glossary On
Versions: 1 2 3 4 5 6 7 8 9 10 11 12 13 14 15 16 17 18 19 20 21 22 23 24 25 26
000
FTUS43 KDTX 292322
TAFDTW
TAF
KDTW 292322Z 3000/0106 02005KT P6SM OVC045
     FM300900 02003KT P6SM SCT045 OVC200
     FM301500 08010KT P6SM OVC150
     FM301800 09007KT P6SM OVC070
     FM302200 08008KT 6SM -SHRA BKN030 OVC070
     FM010100 08008KT 2SM RA BR OVC025=

USA.gov is the U.S. government's official web portal to all federal, state and local government web resources and services.